Terminal Aerodrome Forecast
Issued by NWS Atlanta, GA

Home | Current Version | Previous Version | Text Only | Print | Product List | Glossary On
Versions: 1 2 3 4 5 6 7 8 9 10 11 12 13 14 15 16 17 18 19 20 21 22 23 24 25 26 27 28 29 30 31 32 33 34 35 36 37 38 39 40 41 42 43 44 45
592
FTUS42 KFFC 241533 AAA
TAFAHN
TAF AMD
KAHN 241533Z 2416/2512 18007KT P6SM VCSH BKN015
     FM241900 18008KT 6SM SHRA OVC020
      TEMPO 2419/2421 VRB15G25KT 4SM TSRA SCT010 BKN030CB
     FM242100 19010KT P6SM VCSH BKN050
     FM242300 20009KT P6SM BKN050
     FM250200 27007KT P6SM BKN080=

USA.gov is the U.S. government's official web portal to all federal, state and local government web resources and services.